createdAt,value
2022-12-03T00:00:22.617Z,9
2022-12-03T00:01:22.620Z,9
2022-12-03T00:02:22.755Z,8
2022-12-03T00:03:22.794Z,9
2022-12-03T00:04:22.606Z,8
2022-12-03T00:05:22.634Z,9
2022-12-03T00:06:22.623Z,9
2022-12-03T00:07:22.706Z,9
2022-12-03T00:08:22.629Z,10
2022-12-03T00:09:22.797Z,9
2022-12-03T00:10:22.716Z,8
2022-12-03T00:11:22.776Z,8
2022-12-03T00:12:22.691Z,9
2022-12-03T00:13:22.656Z,8
2022-12-03T00:14:22.858Z,8
2022-12-03T00:15:22.879Z,9
2022-12-03T00:16:22.965Z,8
2022-12-03T00:17:22.654Z,9
2022-12-03T00:18:22.631Z,7
2022-12-03T00:19:22.644Z,9
2022-12-03T00:20:22.640Z,10
2022-12-03T00:21:24.656Z,8
2022-12-03T00:22:22.757Z,8
2022-12-03T00:23:22.871Z,12
2022-12-03T00:24:22.623Z,11
2022-12-03T00:25:22.666Z,9
2022-12-03T00:26:22.617Z,10
2022-12-03T00:27:22.645Z,8
2022-12-03T00:28:22.632Z,9
2022-12-03T00:29:22.634Z,9
2022-12-03T00:30:22.672Z,9
2022-12-03T00:31:22.723Z,9
2022-12-03T00:32:22.668Z,9
2022-12-03T00:33:22.668Z,9
2022-12-03T00:34:22.634Z,8
2022-12-03T00:35:22.630Z,8
2022-12-03T00:36:22.627Z,8
2022-12-03T00:37:22.653Z,10
2022-12-03T00:38:22.690Z,9
2022-12-03T00:39:22.680Z,9
2022-12-03T00:40:22.623Z,7
2022-12-03T00:41:22.616Z,8
2022-12-03T00:42:22.708Z,8
2022-12-03T00:43:22.626Z,9
2022-12-03T00:44:22.627Z,9
2022-12-03T00:45:22.660Z,9
2022-12-03T00:46:22.701Z,10
2022-12-03T00:47:22.661Z,9
2022-12-03T00:48:22.635Z,9
2022-12-03T00:49:22.623Z,9
2022-12-03T00:50:22.639Z,9
2022-12-03T00:51:22.637Z,9
2022-12-03T00:52:22.681Z,10
2022-12-03T00:53:22.648Z,10
2022-12-03T00:54:26.819Z,10
2022-12-03T00:55:22.628Z,11
2022-12-03T00:56:22.628Z,10
2022-12-03T00:57:22.637Z,11
2022-12-03T00:58:22.620Z,8
2022-12-03T00:59:22.609Z,9
2022-12-03T01:00:22.616Z,10
2022-12-03T01:01:22.738Z,11
2022-12-03T01:02:22.755Z,9
2022-12-03T01:03:22.630Z,10
2022-12-03T01:04:22.739Z,10
2022-12-03T01:05:22.626Z,10
2022-12-03T01:06:22.615Z,10
2022-12-03T01:07:22.728Z,10
2022-12-03T01:08:22.628Z,10
2022-12-03T01:09:22.677Z,10
2022-12-03T01:10:22.676Z,11
2022-12-03T01:11:22.626Z,10
2022-12-03T01:12:22.636Z,12
2022-12-03T01:13:22.677Z,10
2022-12-03T01:14:22.646Z,11
2022-12-03T01:15:22.655Z,10
2022-12-03T01:16:22.665Z,11
2022-12-03T01:17:22.725Z,12
2022-12-03T01:18:22.685Z,12
2022-12-03T01:19:22.613Z,12
2022-12-03T01:20:22.616Z,10
2022-12-03T01:21:22.729Z,12
2022-12-03T01:22:22.686Z,12
2022-12-03T01:23:22.638Z,13
2022-12-03T01:24:22.641Z,13
2022-12-03T01:25:22.674Z,14
2022-12-03T01:26:22.620Z,14
2022-12-03T01:27:23.019Z,13
2022-12-03T01:28:22.737Z,15
2022-12-03T01:29:22.962Z,13
2022-12-03T01:30:22.635Z,12
2022-12-03T01:31:22.681Z,13
2022-12-03T01:32:22.971Z,13
2022-12-03T01:33:22.676Z,14
2022-12-03T01:34:22.628Z,12
2022-12-03T01:35:22.683Z,13
2022-12-03T01:36:22.636Z,13
2022-12-03T01:37:22.672Z,12
2022-12-03T01:38:22.614Z,13
2022-12-03T01:39:22.622Z,11
2022-12-03T01:40:22.643Z,13
2022-12-03T01:41:22.653Z,13
2022-12-03T01:42:22.633Z,14
2022-12-03T01:43:22.627Z,11
2022-12-03T01:44:22.623Z,14
2022-12-03T01:45:22.636Z,13
2022-12-03T01:46:22.744Z,15
2022-12-03T01:47:22.665Z,13
2022-12-03T01:48:22.676Z,14
2022-12-03T01:49:22.664Z,15
2022-12-03T01:50:22.646Z,13
2022-12-03T01:51:22.671Z,13
2022-12-03T01:52:22.669Z,15
2022-12-03T01:53:22.619Z,12
2022-12-03T01:54:22.675Z,13
2022-12-03T01:55:22.618Z,13
2022-12-03T01:56:22.711Z,14
2022-12-03T01:57:22.699Z,13
2022-12-03T01:58:22.640Z,13
2022-12-03T01:59:22.615Z,13
2022-12-03T02:00:22.641Z,12
2022-12-03T02:01:22.685Z,12
2022-12-03T02:02:22.721Z,15
2022-12-03T02:03:22.609Z,15
2022-12-03T02:04:22.780Z,13
2022-12-03T02:05:22.688Z,13
2022-12-03T02:06:22.656Z,13
2022-12-03T02:07:22.651Z,16
2022-12-03T02:08:22.623Z,14
2022-12-03T02:09:22.633Z,14
2022-12-03T02:10:22.640Z,14
2022-12-03T02:11:22.623Z,13
2022-12-03T02:12:22.680Z,14
2022-12-03T02:13:22.624Z,14
2022-12-03T02:14:22.623Z,13
2022-12-03T02:15:22.617Z,17
2022-12-03T02:16:22.770Z,14
2022-12-03T02:17:22.640Z,15
2022-12-03T02:18:22.614Z,15
2022-12-03T02:19:22.637Z,17
2022-12-03T02:20:22.725Z,13
2022-12-03T02:21:22.612Z,17
2022-12-03T02:22:22.690Z,15
2022-12-03T02:23:22.813Z,16
2022-12-03T02:24:22.640Z,15
2022-12-03T02:25:22.584Z,15
2022-12-03T02:26:22.632Z,15
2022-12-03T02:27:22.679Z,15
2022-12-03T02:28:22.752Z,15
2022-12-03T02:29:22.616Z,14
2022-12-03T02:30:22.726Z,15
2022-12-03T02:31:22.646Z,16
2022-12-03T02:32:22.637Z,13
2022-12-03T02:33:22.670Z,15
2022-12-03T02:34:22.620Z,14
2022-12-03T02:35:22.663Z,13
2022-12-03T02:36:22.662Z,15
2022-12-03T02:37:22.685Z,17
2022-12-03T02:38:22.714Z,16
2022-12-03T02:39:22.614Z,15
2022-12-03T02:40:22.625Z,16
2022-12-03T02:41:22.689Z,16
2022-12-03T02:42:22.647Z,16
2022-12-03T02:43:22.666Z,13
2022-12-03T02:44:22.678Z,16
2022-12-03T02:45:22.610Z,13
2022-12-03T02:46:22.651Z,16
2022-12-03T02:47:22.635Z,17
2022-12-03T02:48:22.608Z,18
2022-12-03T02:49:22.685Z,17
2022-12-03T02:50:22.615Z,13
2022-12-03T02:51:22.690Z,15
2022-12-03T02:52:22.715Z,18
2022-12-03T02:53:22.616Z,17
2022-12-03T02:54:22.625Z,19
2022-12-03T02:55:22.608Z,17
2022-12-03T02:56:22.603Z,20
2022-12-03T02:57:22.655Z,25
2022-12-03T02:58:22.637Z,21
2022-12-03T02:59:22.651Z,19
2022-12-03T03:00:22.658Z,18
2022-12-03T03:01:22.721Z,17
2022-12-03T03:02:22.700Z,17
2022-12-03T03:03:22.642Z,17
2022-12-03T03:04:22.615Z,17
2022-12-03T03:05:22.598Z,17
2022-12-03T03:06:22.628Z,16
2022-12-03T03:07:22.700Z,18
2022-12-03T03:08:22.652Z,20
2022-12-03T03:09:22.645Z,16
2022-12-03T03:10:22.624Z,17
2022-12-03T03:11:22.610Z,16
2022-12-03T03:12:22.639Z,16
2022-12-03T03:13:22.617Z,17
2022-12-03T03:14:22.664Z,17
2022-12-03T03:15:22.655Z,18
2022-12-03T03:16:22.946Z,18
2022-12-03T03:17:23.022Z,15
2022-12-03T03:18:22.620Z,16
2022-12-03T03:19:22.624Z,17
2022-12-03T03:20:22.654Z,16
2022-12-03T03:21:22.610Z,15
2022-12-03T03:22:22.700Z,17
2022-12-03T03:23:22.656Z,15
2022-12-03T03:24:22.612Z,16
2022-12-03T03:25:22.621Z,17
2022-12-03T03:26:22.616Z,16
2022-12-03T03:27:22.637Z,15
2022-12-03T03:28:22.678Z,14
2022-12-03T03:29:22.612Z,16
2022-12-03T03:30:22.653Z,15
2022-12-03T03:31:22.732Z,14
2022-12-03T03:32:22.642Z,16
2022-12-03T03:33:22.621Z,15
2022-12-03T03:34:22.607Z,15
2022-12-03T03:35:22.607Z,16
2022-12-03T03:36:22.606Z,15
2022-12-03T03:37:22.637Z,15
2022-12-03T03:38:22.648Z,13
2022-12-03T03:39:22.623Z,16
2022-12-03T03:40:22.616Z,14
2022-12-03T03:41:22.608Z,15
2022-12-03T03:42:22.699Z,14
2022-12-03T03:43:22.614Z,15
2022-12-03T03:44:22.621Z,15
2022-12-03T03:45:28.562Z,14
2022-12-03T03:46:22.710Z,14
2022-12-03T03:47:22.703Z,12
2022-12-03T03:48:22.613Z,13
2022-12-03T03:49:22.610Z,16
2022-12-03T03:50:22.622Z,15
2022-12-03T03:51:22.594Z,15
2022-12-03T03:52:22.677Z,14
2022-12-03T03:53:22.657Z,16
2022-12-03T03:54:22.654Z,14
2022-12-03T03:55:22.609Z,14
2022-12-03T03:56:22.596Z,13
2022-12-03T03:57:22.623Z,15
2022-12-03T03:58:22.578Z,13
2022-12-03T03:59:22.607Z,14
2022-12-03T04:00:22.610Z,15
2022-12-03T04:01:22.709Z,15
2022-12-03T04:02:22.673Z,14
2022-12-03T04:03:22.607Z,15
2022-12-03T04:04:22.722Z,15
2022-12-03T04:05:22.622Z,14
2022-12-03T04:06:22.636Z,15
2022-12-03T04:07:22.697Z,14
2022-12-03T04:08:22.616Z,15
2022-12-03T04:09:22.662Z,15
2022-12-03T04:10:22.679Z,15
2022-12-03T04:11:22.607Z,15
2022-12-03T04:12:22.620Z,15
2022-12-03T04:13:22.619Z,15
2022-12-03T04:14:22.616Z,14
2022-12-03T04:15:22.632Z,16
2022-12-03T04:16:22.700Z,13
2022-12-03T04:17:22.716Z,16
2022-12-03T04:18:22.649Z,15
2022-12-03T04:19:22.607Z,14
2022-12-03T04:20:22.635Z,14
2022-12-03T04:21:22.604Z,17
2022-12-03T04:22:22.626Z,15
2022-12-03T04:23:27.741Z,17
2022-12-03T04:24:22.628Z,16
2022-12-03T04:25:22.664Z,14
2022-12-03T04:26:22.614Z,14
2022-12-03T04:27:22.616Z,15
2022-12-03T04:28:22.625Z,13
2022-12-03T04:29:22.654Z,15
2022-12-03T04:30:22.608Z,14
2022-12-03T04:31:22.730Z,14
2022-12-03T04:32:22.643Z,14
2022-12-03T04:33:22.645Z,15
2022-12-03T04:34:22.640Z,14
2022-12-03T04:35:22.699Z,16
2022-12-03T04:36:22.635Z,17
2022-12-03T04:37:22.602Z,18
2022-12-03T04:38:22.595Z,17
2022-12-03T04:39:22.609Z,18
2022-12-03T04:40:22.643Z,18
2022-12-03T04:41:22.660Z,19
2022-12-03T04:42:22.611Z,22
2022-12-03T04:43:22.606Z,18
2022-12-03T04:44:22.613Z,19
2022-12-03T04:45:22.628Z,16
2022-12-03T04:46:22.696Z,16
2022-12-03T04:47:22.626Z,14
2022-12-03T04:48:22.644Z,14
2022-12-03T04:49:22.640Z,13
2022-12-03T04:50:22.611Z,13
2022-12-03T04:51:22.724Z,15
2022-12-03T04:52:22.614Z,14
2022-12-03T04:53:22.606Z,13
2022-12-03T04:54:22.663Z,14
2022-12-03T04:55:22.609Z,13
2022-12-03T04:56:22.681Z,13
2022-12-03T04:57:22.642Z,14
2022-12-03T04:58:22.608Z,15
2022-12-03T04:59:22.610Z,15
2022-12-03T05:00:22.719Z,13
2022-12-03T05:01:22.670Z,15
2022-12-03T05:02:22.667Z,13
2022-12-03T05:03:22.627Z,13
2022-12-03T05:04:22.651Z,15
2022-12-03T05:05:22.653Z,14
2022-12-03T05:06:22.609Z,14
2022-12-03T05:07:22.599Z,12
2022-12-03T05:08:22.602Z,13
2022-12-03T05:09:22.595Z,13
2022-12-03T05:10:22.605Z,13
2022-12-03T05:11:22.603Z,12
2022-12-03T05:12:22.671Z,13
2022-12-03T05:13:22.592Z,15
2022-12-03T05:14:22.601Z,15
2022-12-03T05:15:22.617Z,12
2022-12-03T05:16:22.704Z,13
2022-12-03T05:17:22.614Z,14
2022-12-03T05:18:22.597Z,12
2022-12-03T05:19:22.672Z,13
2022-12-03T05:20:22.657Z,12
2022-12-03T05:21:22.636Z,11
2022-12-03T05:22:22.600Z,14
2022-12-03T05:23:22.641Z,12
2022-12-03T05:24:22.626Z,12
2022-12-03T05:25:22.603Z,11
2022-12-03T05:26:22.613Z,12
2022-12-03T05:27:24.103Z,12
2022-12-03T05:28:22.640Z,13
2022-12-03T05:29:22.598Z,13
2022-12-03T05:30:22.816Z,13
2022-12-03T05:31:22.649Z,13
2022-12-03T05:32:22.605Z,13
2022-12-03T05:33:22.607Z,12
2022-12-03T05:34:22.625Z,11
2022-12-03T05:35:22.648Z,12
2022-12-03T05:36:22.646Z,12
2022-12-03T05:37:22.635Z,13
2022-12-03T05:38:22.602Z,13
2022-12-03T05:39:22.596Z,12
2022-12-03T05:40:22.608Z,12
2022-12-03T05:41:22.654Z,14
2022-12-03T05:42:22.648Z,12
2022-12-03T05:43:22.678Z,13
2022-12-03T05:44:22.614Z,12
2022-12-03T05:45:22.664Z,13
2022-12-03T05:46:22.805Z,22
2022-12-03T05:47:22.642Z,18
2022-12-03T05:48:22.618Z,17
2022-12-03T05:49:22.607Z,12
2022-12-03T05:50:22.642Z,13
2022-12-03T05:51:22.646Z,13
2022-12-03T05:52:22.648Z,13
2022-12-03T05:53:22.610Z,14
2022-12-03T05:54:22.619Z,12
2022-12-03T05:55:22.610Z,13
2022-12-03T05:56:22.616Z,12
2022-12-03T05:57:22.612Z,12
2022-12-03T05:58:22.643Z,11
2022-12-03T05:59:22.645Z,13
2022-12-03T06:00:22.620Z,13
2022-12-03T06:01:22.641Z,13
2022-12-03T06:02:22.819Z,13
2022-12-03T06:03:22.868Z,13
2022-12-03T06:04:22.676Z,12
2022-12-03T06:05:22.593Z,13
2022-12-03T06:06:22.619Z,11
2022-12-03T06:07:22.663Z,12
2022-12-03T06:08:22.607Z,13
2022-12-03T06:09:22.706Z,14
2022-12-03T06:10:22.615Z,12
2022-12-03T06:11:22.594Z,13
2022-12-03T06:12:22.630Z,13
2022-12-03T06:13:22.603Z,12
2022-12-03T06:14:22.655Z,12
2022-12-03T06:15:22.649Z,12
2022-12-03T06:16:22.645Z,13
2022-12-03T06:17:22.592Z,12
2022-12-03T06:18:22.599Z,12
2022-12-03T06:19:22.686Z,11
2022-12-03T06:20:22.593Z,13
2022-12-03T06:21:22.612Z,14
2022-12-03T06:22:22.659Z,13
2022-12-03T06:23:22.667Z,12
2022-12-03T06:24:22.616Z,12
2022-12-03T06:25:22.615Z,12
2022-12-03T06:26:22.597Z,12
2022-12-03T06:27:22.649Z,14
2022-12-03T06:28:22.598Z,13
2022-12-03T06:29:22.605Z,13
2022-12-03T06:30:22.679Z,13
2022-12-03T06:31:22.763Z,14
2022-12-03T06:32:22.601Z,12
2022-12-03T06:33:22.590Z,13
2022-12-03T06:34:22.617Z,13
2022-12-03T06:35:22.598Z,11
2022-12-03T06:36:23.440Z,13
2022-12-03T06:37:22.576Z,13
2022-12-03T06:38:22.641Z,15
2022-12-03T06:39:22.641Z,13
2022-12-03T06:40:22.598Z,14
2022-12-03T06:41:22.591Z,14
2022-12-03T06:42:22.603Z,17
2022-12-03T06:43:22.594Z,16
2022-12-03T06:44:22.603Z,14
2022-12-03T06:45:22.636Z,14
2022-12-03T06:46:22.711Z,14
2022-12-03T06:47:22.595Z,14
2022-12-03T06:48:22.596Z,14
2022-12-03T06:49:22.713Z,13
2022-12-03T06:50:22.581Z,12
2022-12-03T06:51:22.622Z,13
2022-12-03T06:52:22.613Z,12
2022-12-03T06:53:22.601Z,14
2022-12-03T06:54:22.665Z,13
2022-12-03T06:55:22.620Z,11
2022-12-03T06:56:22.796Z,13
2022-12-03T06:57:22.596Z,15
2022-12-03T06:58:22.609Z,15
2022-12-03T06:59:22.600Z,14
2022-12-03T07:00:22.604Z,15
2022-12-03T07:01:22.722Z,13
2022-12-03T07:02:22.854Z,13
2022-12-03T07:03:22.764Z,13
2022-12-03T07:04:22.651Z,10
2022-12-03T07:05:22.595Z,14
2022-12-03T07:06:22.598Z,11
2022-12-03T07:07:22.598Z,11
2022-12-03T07:08:22.587Z,13
2022-12-03T07:09:22.654Z,12
2022-12-03T07:10:22.625Z,11
2022-12-03T07:11:22.611Z,11
2022-12-03T07:12:22.588Z,13
2022-12-03T07:13:22.592Z,12
2022-12-03T07:14:22.590Z,10
2022-12-03T07:15:22.635Z,13
2022-12-03T07:16:22.650Z,11
2022-12-03T07:17:22.653Z,11
2022-12-03T07:18:22.974Z,12
2022-12-03T07:19:26.320Z,12
2022-12-03T07:20:22.632Z,12
2022-12-03T07:21:22.590Z,11
2022-12-03T07:22:22.601Z,14
2022-12-03T07:23:22.626Z,11
2022-12-03T07:24:22.602Z,12
2022-12-03T07:25:23.743Z,12
2022-12-03T07:26:22.625Z,11
2022-12-03T07:27:22.605Z,11
2022-12-03T07:28:22.608Z,11
2022-12-03T07:29:22.596Z,12
2022-12-03T07:30:22.566Z,12
2022-12-03T07:31:22.689Z,13
2022-12-03T07:32:22.605Z,12
2022-12-03T07:33:22.643Z,12
2022-12-03T07:34:22.592Z,12
2022-12-03T07:35:22.594Z,14
2022-12-03T07:36:22.595Z,13
2022-12-03T07:37:23.481Z,12
2022-12-03T07:38:22.587Z,13
2022-12-03T07:39:22.593Z,12
2022-12-03T07:40:22.600Z,13
2022-12-03T07:41:22.635Z,13
2022-12-03T07:42:22.588Z,12
2022-12-03T07:43:22.601Z,13
2022-12-03T07:44:22.604Z,12
2022-12-03T07:45:22.593Z,12
2022-12-03T07:46:22.655Z,13
2022-12-03T07:47:22.614Z,13
2022-12-03T07:48:22.645Z,13
2022-12-03T07:49:22.624Z,12
2022-12-03T07:50:22.595Z,12
2022-12-03T07:51:24.229Z,12
2022-12-03T07:52:22.613Z,13
2022-12-03T07:53:22.578Z,13
2022-12-03T07:54:22.592Z,14
2022-12-03T07:55:22.588Z,12
2022-12-03T07:56:22.647Z,12
2022-12-03T07:57:22.628Z,14
2022-12-03T07:58:22.591Z,13
2022-12-03T07:59:22.611Z,15
2022-12-03T08:00:22.597Z,12
2022-12-03T08:01:22.641Z,15
2022-12-03T08:02:23.044Z,12
2022-12-03T08:03:22.617Z,14
2022-12-03T08:04:22.644Z,13
2022-12-03T08:05:22.638Z,13
2022-12-03T08:06:22.581Z,14
2022-12-03T08:07:22.619Z,12
2022-12-03T08:08:22.623Z,13
2022-12-03T08:09:22.592Z,13
2022-12-03T08:10:22.590Z,12
2022-12-03T08:11:22.589Z,13
2022-12-03T08:12:22.635Z,12
2022-12-03T08:13:22.593Z,13
2022-12-03T08:14:22.588Z,12
2022-12-03T08:15:22.633Z,13
2022-12-03T08:16:22.649Z,12
2022-12-03T08:17:22.608Z,13
2022-12-03T08:18:22.624Z,13
2022-12-03T08:19:22.585Z,13
2022-12-03T08:20:22.705Z,14
2022-12-03T08:21:22.620Z,13
2022-12-03T08:22:22.601Z,13
2022-12-03T08:23:22.572Z,13
2022-12-03T08:24:22.632Z,15
2022-12-03T08:25:22.638Z,12
2022-12-03T08:26:22.597Z,12
2022-12-03T08:27:22.632Z,12
2022-12-03T08:28:22.716Z,15
2022-12-03T08:29:22.696Z,15
2022-12-03T08:30:22.638Z,14
2022-12-03T08:31:24.776Z,13
2022-12-03T08:32:22.660Z,14
2022-12-03T08:33:22.583Z,19
2022-12-03T08:34:22.596Z,15
2022-12-03T08:35:22.732Z,13
2022-12-03T08:36:22.696Z,14
2022-12-03T08:37:22.643Z,14
2022-12-03T08:38:22.593Z,14
2022-12-03T08:39:22.587Z,14
2022-12-03T08:40:22.618Z,13
2022-12-03T08:41:22.607Z,14
2022-12-03T08:42:22.603Z,13
2022-12-03T08:43:22.620Z,14
2022-12-03T08:44:22.664Z,14
2022-12-03T08:45:22.618Z,18
2022-12-03T08:46:22.653Z,15
2022-12-03T08:47:22.641Z,15
2022-12-03T08:48:22.579Z,15
2022-12-03T08:49:22.630Z,17
2022-12-03T08:50:22.585Z,16
2022-12-03T08:51:22.651Z,13
2022-12-03T08:52:22.609Z,16
2022-12-03T08:53:22.629Z,14
2022-12-03T08:54:22.574Z,12
2022-12-03T08:55:22.601Z,13
2022-12-03T08:56:22.601Z,14
2022-12-03T08:57:22.696Z,16
2022-12-03T08:58:22.602Z,16
2022-12-03T08:59:22.622Z,13
2022-12-03T09:00:22.600Z,14
2022-12-03T09:01:22.692Z,16
2022-12-03T09:02:22.596Z,13
2022-12-03T09:03:22.625Z,14
2022-12-03T09:04:22.866Z,17
2022-12-03T09:05:22.615Z,15
2022-12-03T09:06:22.643Z,16
2022-12-03T09:07:22.631Z,14
2022-12-03T09:08:22.597Z,14
2022-12-03T09:09:22.606Z,14
2022-12-03T09:10:22.588Z,15
2022-12-03T09:11:22.619Z,15
2022-12-03T09:12:22.585Z,16
2022-12-03T09:13:22.603Z,15
2022-12-03T09:14:22.714Z,15
2022-12-03T09:15:22.622Z,14
2022-12-03T09:16:22.650Z,13
2022-12-03T09:17:22.624Z,14
2022-12-03T09:18:22.583Z,14
2022-12-03T09:19:22.597Z,15
2022-12-03T09:20:22.710Z,13
2022-12-03T09:21:22.575Z,13
2022-12-03T09:22:22.627Z,13
2022-12-03T09:23:22.620Z,12
2022-12-03T09:24:22.659Z,11
2022-12-03T09:25:22.633Z,13
2022-12-03T09:26:22.589Z,14
2022-12-03T09:27:22.585Z,12
2022-12-03T09:28:22.581Z,15
2022-12-03T09:29:22.574Z,15
2022-12-03T09:30:22.751Z,15
2022-12-03T09:31:22.660Z,13
2022-12-03T09:32:22.639Z,13
2022-12-03T09:33:22.621Z,14
2022-12-03T09:34:22.573Z,14
2022-12-03T09:35:22.616Z,15
2022-12-03T09:36:22.713Z,13
2022-12-03T09:37:22.804Z,13
2022-12-03T09:38:22.630Z,13
2022-12-03T09:39:22.591Z,13
2022-12-03T09:40:22.679Z,14
2022-12-03T09:41:22.741Z,13
2022-12-03T09:42:22.590Z,16
2022-12-03T09:43:22.622Z,13
2022-12-03T09:44:22.581Z,14
2022-12-03T09:45:22.642Z,15
2022-12-03T09:46:22.720Z,14
2022-12-03T09:47:22.581Z,15
2022-12-03T09:48:22.600Z,14
2022-12-03T09:49:22.617Z,14
2022-12-03T09:50:22.587Z,14
2022-12-03T09:51:22.624Z,15
2022-12-03T09:52:22.718Z,16
2022-12-03T09:53:22.640Z,16
2022-12-03T09:54:22.615Z,17
2022-12-03T09:55:22.571Z,15
2022-12-03T09:56:22.625Z,15
2022-12-03T09:57:22.570Z,16
2022-12-03T09:58:22.567Z,15
2022-12-03T09:59:22.625Z,18
2022-12-03T10:00:22.586Z,17
2022-12-03T10:01:22.708Z,16
2022-12-03T10:02:22.631Z,14
2022-12-03T10:03:28.122Z,15
2022-12-03T10:04:22.661Z,17
2022-12-03T10:05:22.614Z,15
2022-12-03T10:06:22.590Z,16
2022-12-03T10:07:22.624Z,16
2022-12-03T10:08:22.754Z,15
2022-12-03T10:09:22.628Z,16
2022-12-03T10:10:22.614Z,16
2022-12-03T10:11:22.590Z,22
2022-12-03T10:12:22.650Z,17
2022-12-03T10:13:25.866Z,16
2022-12-03T10:14:22.591Z,17
2022-12-03T10:15:22.587Z,17
2022-12-03T10:16:22.672Z,16
2022-12-03T10:17:22.607Z,17
2022-12-03T10:18:22.592Z,16
2022-12-03T10:19:22.581Z,17
2022-12-03T10:20:22.612Z,16
2022-12-03T10:21:22.616Z,18
2022-12-03T10:22:22.637Z,17
2022-12-03T10:23:22.597Z,17
2022-12-03T10:24:22.695Z,18
2022-12-03T10:25:22.620Z,17
2022-12-03T10:26:22.572Z,18
2022-12-03T10:27:22.699Z,18
2022-12-03T10:28:22.608Z,20
2022-12-03T10:29:23.180Z,18
2022-12-03T10:30:22.617Z,18
2022-12-03T10:31:22.671Z,17
2022-12-03T10:32:22.662Z,17
2022-12-03T10:33:22.614Z,21
2022-12-03T10:34:22.607Z,20
2022-12-03T10:35:22.690Z,19
2022-12-03T10:36:22.578Z,19
2022-12-03T10:37:22.640Z,17
2022-12-03T10:38:22.597Z,18
2022-12-03T10:39:22.579Z,18
2022-12-03T10:40:22.684Z,20
2022-12-03T10:41:22.630Z,19
2022-12-03T10:42:22.578Z,21
2022-12-03T10:43:22.573Z,18
2022-12-03T10:44:22.609Z,19
2022-12-03T10:45:22.665Z,19
2022-12-03T10:46:22.758Z,19
2022-12-03T10:47:22.812Z,21
2022-12-03T10:48:22.615Z,18
2022-12-03T10:49:22.602Z,19
2022-12-03T10:50:22.583Z,18
2022-12-03T10:51:22.569Z,20
2022-12-03T10:52:25.639Z,21
2022-12-03T10:53:22.637Z,18
2022-12-03T10:54:22.592Z,21
2022-12-03T10:55:22.576Z,20
2022-12-03T10:56:22.667Z,19
2022-12-03T10:57:22.571Z,20
2022-12-03T10:58:22.564Z,21
2022-12-03T10:59:22.608Z,18
2022-12-03T11:00:22.600Z,21
2022-12-03T11:01:22.699Z,22
2022-12-03T11:02:22.557Z,23
2022-12-03T11:03:22.788Z,21
2022-12-03T11:04:22.622Z,22
2022-12-03T11:05:22.585Z,20
2022-12-03T11:06:22.582Z,21
2022-12-03T11:07:22.601Z,21
2022-12-03T11:08:22.570Z,22
2022-12-03T11:09:22.608Z,20
2022-12-03T11:10:22.575Z,20
2022-12-03T11:11:22.663Z,21
2022-12-03T11:12:22.635Z,22
2022-12-03T11:13:22.591Z,19
2022-12-03T11:14:23.150Z,24
2022-12-03T11:15:22.574Z,21
2022-12-03T11:16:22.732Z,21
2022-12-03T11:17:22.574Z,19
2022-12-03T11:18:22.593Z,22
2022-12-03T11:19:22.654Z,19
2022-12-03T11:20:23.188Z,20
2022-12-03T11:21:22.594Z,21
2022-12-03T11:22:22.601Z,19
2022-12-03T11:23:22.572Z,19
2022-12-03T11:24:22.676Z,20
2022-12-03T11:25:22.596Z,21
2022-12-03T11:26:22.561Z,18
2022-12-03T11:27:22.610Z,21
2022-12-03T11:28:22.673Z,19
2022-12-03T11:29:22.576Z,20
2022-12-03T11:30:22.581Z,20
2022-12-03T11:31:22.632Z,21
2022-12-03T11:32:22.581Z,20
2022-12-03T11:33:22.893Z,20
2022-12-03T11:34:22.750Z,22
2022-12-03T11:35:22.629Z,21
2022-12-03T11:36:42.005Z,19
2022-12-03T11:37:22.599Z,20
2022-12-03T11:38:22.582Z,23
2022-12-03T11:39:22.607Z,21
2022-12-03T11:40:22.600Z,20
2022-12-03T11:41:22.604Z,20
2022-12-03T11:42:22.645Z,21
2022-12-03T11:43:22.654Z,21
2022-12-03T11:44:22.629Z,21
2022-12-03T11:45:22.589Z,22
2022-12-03T11:46:22.723Z,22
2022-12-03T11:47:22.585Z,24
2022-12-03T11:48:22.591Z,24
2022-12-03T11:49:22.607Z,23
2022-12-03T11:50:22.627Z,22
2022-12-03T11:51:22.612Z,22
2022-12-03T11:52:22.609Z,21
2022-12-03T11:53:22.667Z,22
2022-12-03T11:54:22.598Z,22
2022-12-03T11:55:22.572Z,20
2022-12-03T11:56:22.622Z,21
2022-12-03T11:57:22.624Z,24
2022-12-03T11:58:22.608Z,21
2022-12-03T11:59:22.615Z,20
2022-12-03T12:00:22.554Z,23
2022-12-03T12:01:22.590Z,24
2022-12-03T12:02:22.580Z,21
2022-12-03T12:03:22.715Z,19
2022-12-03T12:04:22.732Z,22
2022-12-03T12:05:22.608Z,21
2022-12-03T12:06:22.635Z,24
2022-12-03T12:07:22.610Z,22
2022-12-03T12:08:22.584Z,24
2022-12-03T12:09:22.573Z,24
2022-12-03T12:10:22.580Z,20
2022-12-03T12:11:22.577Z,23
2022-12-03T12:12:22.629Z,22
2022-12-03T12:13:22.645Z,23
2022-12-03T12:14:22.603Z,22
2022-12-03T12:15:22.617Z,23
2022-12-03T12:16:22.622Z,22
2022-12-03T12:17:22.582Z,21
2022-12-03T12:18:22.575Z,22
2022-12-03T12:19:22.590Z,24
2022-12-03T12:20:22.600Z,21
2022-12-03T12:21:22.620Z,23
2022-12-03T12:22:22.616Z,22
2022-12-03T12:23:22.611Z,22
2022-12-03T12:24:22.593Z,23
2022-12-03T12:25:22.568Z,23
2022-12-03T12:26:22.593Z,22
2022-12-03T12:27:22.569Z,23
2022-12-03T12:28:22.565Z,22
2022-12-03T12:29:22.605Z,25
2022-12-03T12:30:22.621Z,21
2022-12-03T12:31:22.664Z,21
2022-12-03T12:32:22.616Z,22
2022-12-03T12:33:22.565Z,21
2022-12-03T12:34:22.577Z,24
2022-12-03T12:35:22.566Z,20
2022-12-03T12:36:22.611Z,25
2022-12-03T12:37:22.653Z,22
2022-12-03T12:38:22.597Z,23
2022-12-03T12:39:22.559Z,23
2022-12-03T12:40:22.936Z,23
2022-12-03T12:41:22.568Z,23
2022-12-03T12:42:22.577Z,23
2022-12-03T12:43:24.269Z,22
2022-12-03T12:44:22.570Z,27
2022-12-03T12:45:22.619Z,27
2022-12-03T12:46:47.413Z,28
2022-12-03T12:47:22.667Z,26
2022-12-03T12:48:22.543Z,24
2022-12-03T12:49:22.567Z,22
2022-12-03T12:50:22.572Z,23
2022-12-03T12:51:22.557Z,25
2022-12-03T12:52:22.617Z,23
2022-12-03T12:53:22.646Z,22
2022-12-03T12:54:22.565Z,24
2022-12-03T12:55:22.604Z,22
2022-12-03T12:56:22.612Z,24
2022-12-03T12:57:22.634Z,24
2022-12-03T12:58:22.563Z,24
2022-12-03T12:59:22.580Z,24
2022-12-03T13:00:22.665Z,22
2022-12-03T13:01:22.769Z,24
2022-12-03T13:02:22.638Z,25
2022-12-03T13:03:22.569Z,24
2022-12-03T13:04:22.624Z,26
2022-12-03T13:05:22.564Z,25
2022-12-03T13:06:22.595Z,26
2022-12-03T13:07:22.645Z,25
2022-12-03T13:08:22.685Z,26
2022-12-03T13:09:22.617Z,24
2022-12-03T13:10:22.568Z,24
2022-12-03T13:11:22.574Z,24
2022-12-03T13:12:22.572Z,22
2022-12-03T13:13:22.561Z,23
2022-12-03T13:14:22.578Z,22
2022-12-03T13:15:22.638Z,26
2022-12-03T13:16:22.752Z,24
2022-12-03T13:17:22.618Z,26
2022-12-03T13:18:22.614Z,27
2022-12-03T13:19:22.623Z,26
2022-12-03T13:20:22.574Z,25
2022-12-03T13:21:22.564Z,24
2022-12-03T13:22:22.609Z,27
2022-12-03T13:23:22.611Z,26
2022-12-03T13:24:22.981Z,25
2022-12-03T13:25:44.019Z,26
2022-12-03T13:26:38.139Z,28
2022-12-03T13:27:22.613Z,33
2022-12-03T13:28:22.602Z,27
2022-12-03T13:29:22.665Z,28
2022-12-03T13:30:22.859Z,28
2022-12-03T13:31:22.997Z,25
2022-12-03T13:32:22.649Z,25
2022-12-03T13:33:22.608Z,24
2022-12-03T13:34:22.837Z,26
2022-12-03T13:35:22.881Z,23
2022-12-03T13:36:22.794Z,26
2022-12-03T13:37:22.679Z,26
2022-12-03T13:38:22.905Z,26
2022-12-03T13:39:22.928Z,24
2022-12-03T13:40:22.548Z,23
2022-12-03T13:41:22.571Z,25
2022-12-03T13:42:22.587Z,28
2022-12-03T13:43:22.576Z,29
2022-12-03T13:44:22.575Z,27
2022-12-03T13:45:22.574Z,26
2022-12-03T13:46:22.743Z,26
2022-12-03T13:47:22.614Z,28
2022-12-03T13:48:22.581Z,26
2022-12-03T13:49:22.598Z,25
2022-12-03T13:50:22.556Z,25
2022-12-03T13:51:22.550Z,26
2022-12-03T13:52:22.559Z,26
2022-12-03T13:53:22.924Z,25
2022-12-03T13:54:22.606Z,27
2022-12-03T13:55:22.628Z,29
2022-12-03T13:56:22.612Z,27
2022-12-03T13:57:22.634Z,26
2022-12-03T13:58:22.581Z,27
2022-12-03T13:59:26.183Z,28
2022-12-03T14:00:22.569Z,27
2022-12-03T14:01:22.626Z,25
2022-12-03T14:02:22.709Z,26
2022-12-03T14:03:22.611Z,26
2022-12-03T14:04:22.566Z,25
2022-12-03T14:05:22.602Z,24
2022-12-03T14:06:22.567Z,24
2022-12-03T14:07:22.612Z,26
2022-12-03T14:08:22.659Z,27
2022-12-03T14:09:22.564Z,28
2022-12-03T14:10:22.624Z,25
2022-12-03T14:11:22.608Z,27
2022-12-03T14:12:22.685Z,24
2022-12-03T14:13:22.618Z,26
2022-12-03T14:14:22.546Z,27
2022-12-03T14:15:22.576Z,25
2022-12-03T14:16:22.651Z,25
2022-12-03T14:17:22.653Z,27